sensor_id;sensor_type;location;lat;lon;timestamp;P1;durP1;ratioP1;P2;durP2;ratioP2
76171;SDS011;64929;51.178;4.138;2023-12-29T00:02:15;8.68;;;1.55;;
76171;SDS011;64929;51.178;4.138;2023-12-29T00:04:40;9.65;;;0.95;;
76171;SDS011;64929;51.178;4.138;2023-12-29T00:07:07;8.48;;;1.30;;
76171;SDS011;64929;51.178;4.138;2023-12-29T00:09:33;9.10;;;1.60;;
76171;SDS011;64929;51.178;4.138;2023-12-29T00:12:05;9.45;;;2.08;;
76171;SDS011;64929;51.178;4.138;2023-12-29T00:14:32;9.95;;;1.65;;
76171;SDS011;64929;51.178;4.138;2023-12-29T00:16:58;8.82;;;1.55;;
76171;SDS011;64929;51.178;4.138;2023-12-29T00:19:24;10.48;;;1.33;;
76171;SDS011;64929;51.178;4.138;2023-12-29T00:21:50;7.25;;;1.67;;
76171;SDS011;64929;51.178;4.138;2023-12-29T00:24:16;11.82;;;1.45;;
76171;SDS011;64929;51.178;4.138;2023-12-29T00:26:42;12.30;;;1.42;;
76171;SDS011;64929;51.178;4.138;2023-12-29T00:29:08;11.82;;;1.70;;
76171;SDS011;64929;51.178;4.138;2023-12-29T00:31:33;8.35;;;1.40;;
76171;SDS011;64929;51.178;4.138;2023-12-29T00:33:59;11.45;;;1.95;;
76171;SDS011;64929;51.178;4.138;2023-12-29T00:36:25;7.88;;;2.15;;
76171;SDS011;64929;51.178;4.138;2023-12-29T00:38:51;13.20;;;1.92;;
76171;SDS011;64929;51.178;4.138;2023-12-29T00:41:16;9.73;;;1.23;;
76171;SDS011;64929;51.178;4.138;2023-12-29T00:43:42;16.15;;;1.88;;
76171;SDS011;64929;51.178;4.138;2023-12-29T00:46:08;12.73;;;1.33;;
76171;SDS011;64929;51.178;4.138;2023-12-29T00:48:34;5.78;;;1.35;;
76171;SDS011;64929;51.178;4.138;2023-12-29T00:51:03;4.85;;;1.40;;
76171;SDS011;64929;51.178;4.138;2023-12-29T00:53:29;10.77;;;1.13;;
76171;SDS011;64929;51.178;4.138;2023-12-29T00:55:56;9.90;;;1.10;;
76171;SDS011;64929;51.178;4.138;2023-12-29T00:58:22;8.68;;;1.13;;
76171;SDS011;64929;51.178;4.138;2023-12-29T01:00:48;5.65;;;1.33;;
76171;SDS011;64929;51.178;4.138;2023-12-29T01:03:14;8.27;;;1.20;;
76171;SDS011;64929;51.178;4.138;2023-12-29T01:05:39;8.55;;;2.33;;
76171;SDS011;64929;51.178;4.138;2023-12-29T01:08:05;8.50;;;1.65;;
76171;SDS011;64929;51.178;4.138;2023-12-29T01:10:31;8.90;;;1.52;;
76171;SDS011;64929;51.178;4.138;2023-12-29T01:12:56;14.80;;;1.30;;
76171;SDS011;64929;51.178;4.138;2023-12-29T01:15:22;7.05;;;1.17;;
76171;SDS011;64929;51.178;4.138;2023-12-29T01:17:48;9.40;;;1.50;;
76171;SDS011;64929;51.178;4.138;2023-12-29T01:20:14;5.25;;;1.15;;
76171;SDS011;64929;51.178;4.138;2023-12-29T01:22:39;6.75;;;1.45;;
76171;SDS011;64929;51.178;4.138;2023-12-29T01:25:05;7.07;;;1.50;;
76171;SDS011;64929;51.178;4.138;2023-12-29T01:27:31;7.03;;;1.27;;
76171;SDS011;64929;51.178;4.138;2023-12-29T01:29:57;7.28;;;1.33;;
76171;SDS011;64929;51.178;4.138;2023-12-29T01:32:23;6.28;;;1.60;;
76171;SDS011;64929;51.178;4.138;2023-12-29T01:34:48;9.10;;;1.15;;
76171;SDS011;64929;51.178;4.138;2023-12-29T01:37:14;6.80;;;1.48;;
76171;SDS011;64929;51.178;4.138;2023-12-29T01:39:40;4.90;;;1.02;;
76171;SDS011;64929;51.178;4.138;2023-12-29T01:42:06;5.15;;;1.17;;
76171;SDS011;64929;51.178;4.138;2023-12-29T01:44:31;4.78;;;1.13;;
76171;SDS011;64929;51.178;4.138;2023-12-29T01:47:00;6.05;;;1.05;;
76171;SDS011;64929;51.178;4.138;2023-12-29T01:49:27;6.72;;;1.38;;
76171;SDS011;64929;51.178;4.138;2023-12-29T01:51:56;5.70;;;1.10;;
76171;SDS011;64929;51.178;4.138;2023-12-29T01:54:24;7.25;;;1.33;;
76171;SDS011;64929;51.178;4.138;2023-12-29T01:56:52;21.13;;;2.17;;
76171;SDS011;64929;51.178;4.138;2023-12-29T01:59:21;8.48;;;1.30;;
76171;SDS011;64929;51.178;4.138;2023-12-29T02:01:48;6.00;;;1.00;;
76171;SDS011;64929;51.178;4.138;2023-12-29T02:04:13;9.90;;;1.33;;
76171;SDS011;64929;51.178;4.138;2023-12-29T02:06:40;11.05;;;0.98;;
76171;SDS011;64929;51.178;4.138;2023-12-29T02:09:07;7.47;;;1.55;;
76171;SDS011;64929;51.178;4.138;2023-12-29T02:11:34;11.75;;;1.55;;
76171;SDS011;64929;51.178;4.138;2023-12-29T02:14:00;9.23;;;1.25;;
76171;SDS011;64929;51.178;4.138;2023-12-29T02:19:39;7.07;;;1.42;;
76171;SDS011;64929;51.178;4.138;2023-12-29T02:22:07;13.10;;;1.48;;
76171;SDS011;64929;51.178;4.138;2023-12-29T02:24:34;10.25;;;1.77;;
76171;SDS011;64929;51.178;4.138;2023-12-29T02:29:28;8.23;;;1.60;;
76171;SDS011;64929;51.178;4.138;2023-12-29T02:31:56;8.10;;;1.50;;
76171;SDS011;64929;51.178;4.138;2023-12-29T02:34:25;6.72;;;1.05;;
76171;SDS011;64929;51.178;4.138;2023-12-29T02:36:52;7.88;;;1.67;;
76171;SDS011;64929;51.178;4.138;2023-12-29T02:39:18;9.68;;;1.27;;
76171;SDS011;64929;51.178;4.138;2023-12-29T02:41:44;5.47;;;1.27;;
76171;SDS011;64929;51.178;4.138;2023-12-29T02:44:10;5.30;;;0.77;;
76171;SDS011;64929;51.178;4.138;2023-12-29T02:46:36;8.68;;;1.23;;
76171;SDS011;64929;51.178;4.138;2023-12-29T02:49:02;10.45;;;1.33;;
76171;SDS011;64929;51.178;4.138;2023-12-29T02:51:28;9.15;;;1.40;;
76171;SDS011;64929;51.178;4.138;2023-12-29T02:53:53;9.52;;;1.40;;
76171;SDS011;64929;51.178;4.138;2023-12-29T02:56:19;5.72;;;1.30;;
76171;SDS011;64929;51.178;4.138;2023-12-29T02:58:45;10.48;;;1.58;;
76171;SDS011;64929;51.178;4.138;2023-12-29T03:01:13;8.63;;;1.35;;
76171;SDS011;64929;51.178;4.138;2023-12-29T03:03:38;8.23;;;1.27;;
76171;SDS011;64929;51.178;4.138;2023-12-29T03:06:05;5.97;;;1.30;;
76171;SDS011;64929;51.178;4.138;2023-12-29T03:08:31;5.97;;;1.10;;
76171;SDS011;64929;51.178;4.138;2023-12-29T03:10:57;5.22;;;1.42;;
76171;SDS011;64929;51.178;4.138;2023-12-29T03:13:24;7.03;;;1.52;;
76171;SDS011;64929;51.178;4.138;2023-12-29T03:15:49;6.00;;;1.40;;
76171;SDS011;64929;51.178;4.138;2023-12-29T03:18:15;9.70;;;1.55;;
76171;SDS011;64929;51.178;4.138;2023-12-29T03:20:41;7.88;;;1.10;;
76171;SDS011;64929;51.178;4.138;2023-12-29T03:23:07;8.98;;;1.42;;
76171;SDS011;64929;51.178;4.138;2023-12-29T03:25:32;12.40;;;0.95;;
76171;SDS011;64929;51.178;4.138;2023-12-29T03:27:58;11.45;;;2.20;;
76171;SDS011;64929;51.178;4.138;2023-12-29T03:30:24;10.85;;;1.33;;
76171;SDS011;64929;51.178;4.138;2023-12-29T03:32:49;5.32;;;1.27;;
76171;SDS011;64929;51.178;4.138;2023-12-29T03:35:15;6.93;;;1.35;;
76171;SDS011;64929;51.178;4.138;2023-12-29T03:37:41;8.80;;;1.40;;
76171;SDS011;64929;51.178;4.138;2023-12-29T03:40:07;8.80;;;1.42;;
76171;SDS011;64929;51.178;4.138;2023-12-29T03:42:33;5.50;;;1.40;;
76171;SDS011;64929;51.178;4.138;2023-12-29T03:44:59;10.32;;;1.25;;
76171;SDS011;64929;51.178;4.138;2023-12-29T03:47:25;7.10;;;1.25;;
76171;SDS011;64929;51.178;4.138;2023-12-29T03:49:50;8.00;;;1.35;;
76171;SDS011;64929;51.178;4.138;2023-12-29T03:52:16;7.85;;;1.42;;
76171;SDS011;64929;51.178;4.138;2023-12-29T03:54:42;7.03;;;1.10;;
76171;SDS011;64929;51.178;4.138;2023-12-29T03:57:07;8.38;;;2.10;;
76171;SDS011;64929;51.178;4.138;2023-12-29T03:59:36;10.23;;;1.52;;
76171;SDS011;64929;51.178;4.138;2023-12-29T04:02:02;8.70;;;2.17;;
76171;SDS011;64929;51.178;4.138;2023-12-29T04:04:28;8.10;;;1.48;;
76171;SDS011;64929;51.178;4.138;2023-12-29T04:06:54;8.82;;;1.50;;
76171;SDS011;64929;51.178;4.138;2023-12-29T04:09:19;7.70;;;1.30;;
76171;SDS011;64929;51.178;4.138;2023-12-29T04:11:45;13.23;;;1.52;;
76171;SDS011;64929;51.178;4.138;2023-12-29T04:14:11;10.63;;;1.40;;
76171;SDS011;64929;51.178;4.138;2023-12-29T04:16:38;14.25;;;1.63;;
76171;SDS011;64929;51.178;4.138;2023-12-29T04:19:04;8.85;;;1.35;;
76171;SDS011;64929;51.178;4.138;2023-12-29T04:21:30;10.90;;;2.28;;
76171;SDS011;64929;51.178;4.138;2023-12-29T04:23:55;14.05;;;1.27;;
76171;SDS011;64929;51.178;4.138;2023-12-29T04:26:21;12.65;;;1.65;;
76171;SDS011;64929;51.178;4.138;2023-12-29T04:28:47;11.02;;;2.58;;
76171;SDS011;64929;51.178;4.138;2023-12-29T04:31:12;5.10;;;1.23;;
76171;SDS011;64929;51.178;4.138;2023-12-29T04:33:38;10.43;;;1.83;;
76171;SDS011;64929;51.178;4.138;2023-12-29T04:36:04;6.38;;;1.27;;
76171;SDS011;64929;51.178;4.138;2023-12-29T04:38:30;6.72;;;1.30;;
76171;SDS011;64929;51.178;4.138;2023-12-29T04:40:56;5.82;;;1.20;;
76171;SDS011;64929;51.178;4.138;2023-12-29T04:43:21;7.47;;;1.83;;
76171;SDS011;64929;51.178;4.138;2023-12-29T04:45:47;5.22;;;1.20;;
76171;SDS011;64929;51.178;4.138;2023-12-29T04:48:13;12.88;;;2.08;;
76171;SDS011;64929;51.178;4.138;2023-12-29T04:50:38;10.88;;;1.38;;
76171;SDS011;64929;51.178;4.138;2023-12-29T04:53:04;4.95;;;1.00;;
76171;SDS011;64929;51.178;4.138;2023-12-29T04:55:30;10.30;;;1.58;;
76171;SDS011;64929;51.178;4.138;2023-12-29T04:57:55;11.95;;;1.55;;
76171;SDS011;64929;51.178;4.138;2023-12-29T05:00:21;3.97;;;1.05;;
76171;SDS011;64929;51.178;4.138;2023-12-29T05:02:47;8.35;;;1.17;;
76171;SDS011;64929;51.178;4.138;2023-12-29T05:05:12;7.50;;;1.73;;
76171;SDS011;64929;51.178;4.138;2023-12-29T05:07:38;4.28;;;1.08;;
76171;SDS011;64929;51.178;4.138;2023-12-29T05:10:04;10.00;;;1.35;;
76171;SDS011;64929;51.178;4.138;2023-12-29T05:12:30;10.10;;;1.17;;
76171;SDS011;64929;51.178;4.138;2023-12-29T05:14:56;5.63;;;1.33;;
76171;SDS011;64929;51.178;4.138;2023-12-29T05:17:21;8.50;;;1.95;;
76171;SDS011;64929;51.178;4.138;2023-12-29T05:19:47;8.98;;;1.35;;
76171;SDS011;64929;51.178;4.138;2023-12-29T05:22:13;9.07;;;1.05;;
76171;SDS011;64929;51.178;4.138;2023-12-29T05:24:42;9.57;;;1.08;;
76171;SDS011;64929;51.178;4.138;2023-12-29T05:27:08;9.02;;;1.35;;
76171;SDS011;64929;51.178;4.138;2023-12-29T05:29:34;7.22;;;1.08;;
76171;SDS011;64929;51.178;4.138;2023-12-29T05:31:59;5.90;;;1.33;;
76171;SDS011;64929;51.178;4.138;2023-12-29T05:34:27;4.35;;;1.20;;
76171;SDS011;64929;51.178;4.138;2023-12-29T05:36:53;9.05;;;1.42;;
76171;SDS011;64929;51.178;4.138;2023-12-29T05:39:19;3.85;;;1.25;;
76171;SDS011;64929;51.178;4.138;2023-12-29T05:41:44;9.65;;;1.85;;
76171;SDS011;64929;51.178;4.138;2023-12-29T05:44:10;4.82;;;1.20;;
76171;SDS011;64929;51.178;4.138;2023-12-29T05:46:36;1.98;;;1.10;;
76171;SDS011;64929;51.178;4.138;2023-12-29T05:49:01;4.03;;;1.10;;
76171;SDS011;64929;51.178;4.138;2023-12-29T05:51:27;8.88;;;1.30;;
76171;SDS011;64929;51.178;4.138;2023-12-29T05:53:53;14.77;;;1.55;;
76171;SDS011;64929;51.178;4.138;2023-12-29T05:56:18;10.65;;;2.47;;
76171;SDS011;64929;51.178;4.138;2023-12-29T05:58:45;7.07;;;1.75;;
76171;SDS011;64929;51.178;4.138;2023-12-29T06:01:10;5.38;;;1.30;;
76171;SDS011;64929;51.178;4.138;2023-12-29T06:03:36;9.63;;;1.13;;
76171;SDS011;64929;51.178;4.138;2023-12-29T06:06:02;4.53;;;1.08;;
76171;SDS011;64929;51.178;4.138;2023-12-29T06:08:28;7.35;;;1.73;;
76171;SDS011;64929;51.178;4.138;2023-12-29T06:10:54;8.18;;;1.70;;
76171;SDS011;64929;51.178;4.138;2023-12-29T06:13:19;8.40;;;1.40;;
76171;SDS011;64929;51.178;4.138;2023-12-29T06:15:45;6.03;;;1.85;;
76171;SDS011;64929;51.178;4.138;2023-12-29T06:18:14;5.05;;;1.65;;
76171;SDS011;64929;51.178;4.138;2023-12-29T06:20:40;6.47;;;1.40;;
76171;SDS011;64929;51.178;4.138;2023-12-29T06:23:05;7.50;;;1.20;;
76171;SDS011;64929;51.178;4.138;2023-12-29T06:25:31;10.65;;;1.25;;
76171;SDS011;64929;51.178;4.138;2023-12-29T06:27:58;8.07;;;1.30;;
76171;SDS011;64929;51.178;4.138;2023-12-29T06:30:23;4.80;;;1.27;;
76171;SDS011;64929;51.178;4.138;2023-12-29T06:32:49;7.40;;;1.77;;
76171;SDS011;64929;51.178;4.138;2023-12-29T06:35:17;8.30;;;1.75;;
76171;SDS011;64929;51.178;4.138;2023-12-29T06:37:42;6.50;;;1.13;;
76171;SDS011;64929;51.178;4.138;2023-12-29T06:40:08;7.32;;;1.23;;
76171;SDS011;64929;51.178;4.138;2023-12-29T06:42:34;3.35;;;0.90;;
76171;SDS011;64929;51.178;4.138;2023-12-29T06:45:00;7.50;;;2.03;;
76171;SDS011;64929;51.178;4.138;2023-12-29T06:47:26;12.23;;;1.33;;
76171;SDS011;64929;51.178;4.138;2023-12-29T06:49:52;4.93;;;0.93;;
76171;SDS011;64929;51.178;4.138;2023-12-29T06:52:17;9.32;;;1.38;;
76171;SDS011;64929;51.178;4.138;2023-12-29T06:54:43;4.85;;;1.17;;
76171;SDS011;64929;51.178;4.138;2023-12-29T06:57:09;5.88;;;2.03;;
76171;SDS011;64929;51.178;4.138;2023-12-29T06:59:35;6.00;;;1.00;;
76171;SDS011;64929;51.178;4.138;2023-12-29T07:02:00;3.28;;;1.05;;
76171;SDS011;64929;51.178;4.138;2023-12-29T07:04:26;7.55;;;1.23;;
76171;SDS011;64929;51.178;4.138;2023-12-29T07:06:52;6.15;;;0.98;;
76171;SDS011;64929;51.178;4.138;2023-12-29T07:09:18;6.05;;;1.23;;
76171;SDS011;64929;51.178;4.138;2023-12-29T07:11:47;4.10;;;0.93;;
76171;SDS011;64929;51.178;4.138;2023-12-29T07:14:14;2.60;;;0.70;;
76171;SDS011;64929;51.178;4.138;2023-12-29T07:16:40;3.30;;;1.05;;
76171;SDS011;64929;51.178;4.138;2023-12-29T07:19:06;4.30;;;1.20;;
76171;SDS011;64929;51.178;4.138;2023-12-29T07:21:32;4.50;;;1.48;;
76171;SDS011;64929;51.178;4.138;2023-12-29T07:23:57;4.35;;;1.20;;
76171;SDS011;64929;51.178;4.138;2023-12-29T07:26:23;2.05;;;0.80;;
76171;SDS011;64929;51.178;4.138;2023-12-29T07:28:49;1.90;;;0.65;;
76171;SDS011;64929;51.178;4.138;2023-12-29T07:31:19;5.03;;;0.82;;
76171;SDS011;64929;51.178;4.138;2023-12-29T07:33:45;5.32;;;1.00;;
76171;SDS011;64929;51.178;4.138;2023-12-29T07:36:11;4.40;;;0.90;;
76171;SDS011;64929;51.178;4.138;2023-12-29T07:38:37;4.10;;;1.05;;
76171;SDS011;64929;51.178;4.138;2023-12-29T07:41:03;2.15;;;0.65;;
76171;SDS011;64929;51.178;4.138;2023-12-29T07:43:29;1.98;;;0.75;;
76171;SDS011;64929;51.178;4.138;2023-12-29T07:45:54;4.28;;;0.98;;
76171;SDS011;64929;51.178;4.138;2023-12-29T07:48:20;2.05;;;0.73;;
76171;SDS011;64929;51.178;4.138;2023-12-29T07:50:46;2.22;;;0.52;;
76171;SDS011;64929;51.178;4.138;2023-12-29T07:53:11;0.43;;;0.30;;
76171;SDS011;64929;51.178;4.138;2023-12-29T07:55:37;3.50;;;0.80;;
76171;SDS011;64929;51.178;4.138;2023-12-29T07:58:05;3.63;;;0.57;;
76171;SDS011;64929;51.178;4.138;2023-12-29T08:00:32;2.28;;;0.50;;
76171;SDS011;64929;51.178;4.138;2023-12-29T08:02:58;1.65;;;0.70;;
76171;SDS011;64929;51.178;4.138;2023-12-29T08:05:24;4.07;;;0.45;;
76171;SDS011;64929;51.178;4.138;2023-12-29T08:07:50;2.40;;;0.35;;
76171;SDS011;64929;51.178;4.138;2023-12-29T08:10:16;2.30;;;0.70;;
76171;SDS011;64929;51.178;4.138;2023-12-29T08:12:41;4.07;;;0.82;;
76171;SDS011;64929;51.178;4.138;2023-12-29T08:15:07;1.45;;;0.68;;
76171;SDS011;64929;51.178;4.138;2023-12-29T08:17:33;4.53;;;0.60;;
76171;SDS011;64929;51.178;4.138;2023-12-29T08:19:59;2.83;;;1.52;;
76171;SDS011;64929;51.178;4.138;2023-12-29T08:22:24;2.33;;;0.75;;
76171;SDS011;64929;51.178;4.138;2023-12-29T08:24:53;0.82;;;0.70;;
76171;SDS011;64929;51.178;4.138;2023-12-29T08:27:22;2.33;;;0.90;;
76171;SDS011;64929;51.178;4.138;2023-12-29T08:29:50;3.90;;;0.90;;
76171;SDS011;64929;51.178;4.138;2023-12-29T08:32:16;1.83;;;0.40;;
76171;SDS011;64929;51.178;4.138;2023-12-29T08:34:42;1.95;;;0.88;;
76171;SDS011;64929;51.178;4.138;2023-12-29T08:37:07;1.58;;;0.63;;
76171;SDS011;64929;51.178;4.138;2023-12-29T08:39:33;1.25;;;0.60;;
76171;SDS011;64929;51.178;4.138;2023-12-29T08:41:59;2.20;;;0.73;;
76171;SDS011;64929;51.178;4.138;2023-12-29T08:44:24;1.80;;;0.50;;
76171;SDS011;64929;51.178;4.138;2023-12-29T08:46:50;0.68;;;0.60;;
76171;SDS011;64929;51.178;4.138;2023-12-29T08:49:16;1.42;;;0.60;;
76171;SDS011;64929;51.178;4.138;2023-12-29T08:51:42;1.52;;;0.70;;
76171;SDS011;64929;51.178;4.138;2023-12-29T08:54:08;2.05;;;0.30;;
76171;SDS011;64929;51.178;4.138;2023-12-29T08:56:34;0.70;;;0.30;;
76171;SDS011;64929;51.178;4.138;2023-12-29T08:58:59;2.55;;;0.98;;
76171;SDS011;64929;51.178;4.138;2023-12-29T09:01:25;3.25;;;0.73;;
76171;SDS011;64929;51.178;4.138;2023-12-29T09:03:51;6.35;;;0.60;;
76171;SDS011;64929;51.178;4.138;2023-12-29T09:06:16;1.02;;;0.40;;
76171;SDS011;64929;51.178;4.138;2023-12-29T09:08:42;1.88;;;0.40;;
76171;SDS011;64929;51.178;4.138;2023-12-29T09:11:08;1.92;;;0.80;;
76171;SDS011;64929;51.178;4.138;2023-12-29T09:13:33;1.83;;;0.70;;
76171;SDS011;64929;51.178;4.138;2023-12-29T09:15:59;1.92;;;0.82;;
76171;SDS011;64929;51.178;4.138;2023-12-29T09:18:25;1.55;;;0.80;;
76171;SDS011;64929;51.178;4.138;2023-12-29T09:20:51;3.90;;;0.70;;
76171;SDS011;64929;51.178;4.138;2023-12-29T09:23:17;2.80;;;0.85;;
76171;SDS011;64929;51.178;4.138;2023-12-29T09:25:42;3.45;;;0.80;;
76171;SDS011;64929;51.178;4.138;2023-12-29T09:28:08;2.92;;;1.17;;
76171;SDS011;64929;51.178;4.138;2023-12-29T09:30:34;4.85;;;1.23;;
76171;SDS011;64929;51.178;4.138;2023-12-29T09:33:00;1.45;;;0.63;;
76171;SDS011;64929;51.178;4.138;2023-12-29T09:35:26;1.95;;;0.63;;
76171;SDS011;64929;51.178;4.138;2023-12-29T09:37:51;2.53;;;0.70;;
76171;SDS011;64929;51.178;4.138;2023-12-29T09:40:17;2.53;;;0.80;;
76171;SDS011;64929;51.178;4.138;2023-12-29T09:42:43;5.50;;;0.65;;
76171;SDS011;64929;51.178;4.138;2023-12-29T09:45:12;7.15;;;0.90;;
76171;SDS011;64929;51.178;4.138;2023-12-29T09:47:38;2.88;;;0.50;;
76171;SDS011;64929;51.178;4.138;2023-12-29T09:50:10;4.82;;;1.35;;
76171;SDS011;64929;51.178;4.138;2023-12-29T09:52:40;5.60;;;0.65;;
76171;SDS011;64929;51.178;4.138;2023-12-29T09:55:09;5.53;;;1.07;;
76171;SDS011;64929;51.178;4.138;2023-12-29T09:57:36;4.65;;;0.70;;
76171;SDS011;64929;51.178;4.138;2023-12-29T10:00:03;2.15;;;0.60;;
76171;SDS011;64929;51.178;4.138;2023-12-29T10:02:30;3.65;;;0.52;;
76171;SDS011;64929;51.178;4.138;2023-12-29T10:04:57;7.88;;;0.65;;
76171;SDS011;64929;51.178;4.138;2023-12-29T10:07:26;4.65;;;0.65;;
76171;SDS011;64929;51.178;4.138;2023-12-29T10:09:54;2.47;;;0.60;;
76171;SDS011;64929;51.178;4.138;2023-12-29T10:12:23;2.35;;;0.60;;
76171;SDS011;64929;51.178;4.138;2023-12-29T10:14:56;5.05;;;0.60;;
76171;SDS011;64929;51.178;4.138;2023-12-29T10:17:31;2.47;;;0.60;;
76171;SDS011;64929;51.178;4.138;2023-12-29T10:20:20;2.65;;;0.50;;
76171;SDS011;64929;51.178;4.138;2023-12-29T10:23:20;1.40;;;0.47;;
76171;SDS011;64929;51.178;4.138;2023-12-29T10:28:19;2.63;;;0.63;;
76171;SDS011;64929;51.178;4.138;2023-12-29T10:30:46;4.93;;;0.52;;
76171;SDS011;64929;51.178;4.138;2023-12-29T10:33:18;0.30;;;0.25;;
76171;SDS011;64929;51.178;4.138;2023-12-29T10:35:59;1.02;;;0.30;;
76171;SDS011;64929;51.178;4.138;2023-12-29T10:38:30;2.40;;;0.55;;
76171;SDS011;64929;51.178;4.138;2023-12-29T10:41:15;1.25;;;0.52;;
76171;SDS011;64929;51.178;4.138;2023-12-29T10:43:42;3.53;;;0.80;;
76171;SDS011;64929;51.178;4.138;2023-12-29T10:46:10;2.53;;;0.90;;
76171;SDS011;64929;51.178;4.138;2023-12-29T10:48:37;1.77;;;0.90;;
76171;SDS011;64929;51.178;4.138;2023-12-29T10:51:03;4.32;;;1.23;;
76171;SDS011;64929;51.178;4.138;2023-12-29T10:53:30;3.97;;;0.95;;
76171;SDS011;64929;51.178;4.138;2023-12-29T10:55:59;6.03;;;1.17;;
76171;SDS011;64929;51.178;4.138;2023-12-29T10:58:28;6.13;;;1.00;;
76171;SDS011;64929;51.178;4.138;2023-12-29T11:00:55;6.65;;;0.98;;
76171;SDS011;64929;51.178;4.138;2023-12-29T11:03:21;4.78;;;2.13;;
76171;SDS011;64929;51.178;4.138;2023-12-29T11:05:49;9.10;;;3.88;;
76171;SDS011;64929;51.178;4.138;2023-12-29T11:08:19;6.72;;;1.63;;
76171;SDS011;64929;51.178;4.138;2023-12-29T11:10:49;5.43;;;1.10;;
76171;SDS011;64929;51.178;4.138;2023-12-29T11:13:15;6.68;;;1.70;;
76171;SDS011;64929;51.178;4.138;2023-12-29T11:15:45;7.80;;;1.52;;
76171;SDS011;64929;51.178;4.138;2023-12-29T11:18:14;4.40;;;1.17;;
76171;SDS011;64929;51.178;4.138;2023-12-29T11:20:41;4.65;;;1.50;;
76171;SDS011;64929;51.178;4.138;2023-12-29T11:23:09;5.90;;;1.27;;
76171;SDS011;64929;51.178;4.138;2023-12-29T11:25:36;3.63;;;1.73;;
76171;SDS011;64929;51.178;4.138;2023-12-29T11:28:03;6.28;;;1.02;;
76171;SDS011;64929;51.178;4.138;2023-12-29T11:30:31;8.38;;;1.30;;
76171;SDS011;64929;51.178;4.138;2023-12-29T11:35:33;9.10;;;1.60;;
76171;SDS011;64929;51.178;4.138;2023-12-29T11:40:41;5.60;;;1.45;;
76171;SDS011;64929;51.178;4.138;2023-12-29T11:43:14;3.83;;;1.37;;
76171;SDS011;64929;51.178;4.138;2023-12-29T11:45:42;9.30;;;1.90;;
76171;SDS011;64929;51.178;4.138;2023-12-29T11:48:09;4.72;;;2.05;;
76171;SDS011;64929;51.178;4.138;2023-12-29T11:50:37;13.35;;;1.65;;
76171;SDS011;64929;51.178;4.138;2023-12-29T11:53:07;4.82;;;1.20;;
76171;SDS011;64929;51.178;4.138;2023-12-29T11:55:37;5.47;;;1.30;;
76171;SDS011;64929;51.178;4.138;2023-12-29T11:58:04;4.45;;;1.52;;
76171;SDS011;64929;51.178;4.138;2023-12-29T12:00:52;2.45;;;0.88;;
76171;SDS011;64929;51.178;4.138;2023-12-29T12:03:25;4.75;;;1.55;;
76171;SDS011;64929;51.178;4.138;2023-12-29T12:05:52;4.05;;;1.17;;
76171;SDS011;64929;51.178;4.138;2023-12-29T12:13:54;6.85;;;2.03;;
76171;SDS011;64929;51.178;4.138;2023-12-29T12:19:07;4.70;;;1.73;;
76171;SDS011;64929;51.178;4.138;2023-12-29T12:21:33;6.47;;;1.15;;
76171;SDS011;64929;51.178;4.138;2023-12-29T12:24:01;9.32;;;1.17;;
76171;SDS011;64929;51.178;4.138;2023-12-29T12:26:31;5.97;;;1.30;;
76171;SDS011;64929;51.178;4.138;2023-12-29T12:28:57;4.25;;;1.33;;
76171;SDS011;64929;51.178;4.138;2023-12-29T12:31:24;4.15;;;1.00;;
76171;SDS011;64929;51.178;4.138;2023-12-29T12:33:56;1.27;;;0.68;;
76171;SDS011;64929;51.178;4.138;2023-12-29T12:36:22;4.75;;;1.20;;
76171;SDS011;64929;51.178;4.138;2023-12-29T12:38:55;5.07;;;1.10;;
76171;SDS011;64929;51.178;4.138;2023-12-29T12:41:23;2.65;;;1.13;;
76171;SDS011;64929;51.178;4.138;2023-12-29T12:46:41;3.80;;;1.13;;
76171;SDS011;64929;51.178;4.138;2023-12-29T12:49:13;2.13;;;0.85;;
76171;SDS011;64929;51.178;4.138;2023-12-29T12:51:39;3.40;;;1.00;;
76171;SDS011;64929;51.178;4.138;2023-12-29T12:54:05;12.73;;;1.10;;
76171;SDS011;64929;51.178;4.138;2023-12-29T12:56:32;2.58;;;0.60;;
76171;SDS011;64929;51.178;4.138;2023-12-29T12:58:59;2.22;;;0.50;;
76171;SDS011;64929;51.178;4.138;2023-12-29T13:01:27;1.50;;;0.60;;
76171;SDS011;64929;51.178;4.138;2023-12-29T13:03:54;3.83;;;0.88;;
76171;SDS011;64929;51.178;4.138;2023-12-29T13:06:21;3.70;;;0.60;;
76171;SDS011;64929;51.178;4.138;2023-12-29T13:08:50;1.95;;;0.70;;
76171;SDS011;64929;51.178;4.138;2023-12-29T13:11:21;2.40;;;0.60;;
76171;SDS011;64929;51.178;4.138;2023-12-29T13:13:49;1.80;;;0.32;;
76171;SDS011;64929;51.178;4.138;2023-12-29T13:16:15;1.70;;;0.70;;
76171;SDS011;64929;51.178;4.138;2023-12-29T13:18:40;1.20;;;0.60;;
76171;SDS011;64929;51.178;4.138;2023-12-29T13:21:06;1.90;;;0.85;;
76171;SDS011;64929;51.178;4.138;2023-12-29T13:23:34;3.03;;;0.70;;
76171;SDS011;64929;51.178;4.138;2023-12-29T13:26:04;2.15;;;1.00;;
76171;SDS011;64929;51.178;4.138;2023-12-29T13:28:32;4.15;;;0.70;;
76171;SDS011;64929;51.178;4.138;2023-12-29T13:30:59;2.67;;;0.75;;
76171;SDS011;64929;51.178;4.138;2023-12-29T13:33:33;1.83;;;0.88;;
76171;SDS011;64929;51.178;4.138;2023-12-29T13:36:12;3.28;;;0.82;;
76171;SDS011;64929;51.178;4.138;2023-12-29T13:38:43;2.17;;;0.60;;
76171;SDS011;64929;51.178;4.138;2023-12-29T13:41:16;1.17;;;0.80;;
76171;SDS011;64929;51.178;4.138;2023-12-29T13:43:44;2.40;;;0.90;;
76171;SDS011;64929;51.178;4.138;2023-12-29T13:46:12;2.63;;;1.10;;
76171;SDS011;64929;51.178;4.138;2023-12-29T13:48:41;1.55;;;0.70;;
76171;SDS011;64929;51.178;4.138;2023-12-29T13:51:08;3.67;;;0.95;;
76171;SDS011;64929;51.178;4.138;2023-12-29T13:53:34;2.88;;;1.33;;
76171;SDS011;64929;51.178;4.138;2023-12-29T13:56:06;1.77;;;0.90;;
76171;SDS011;64929;51.178;4.138;2023-12-29T13:58:35;2.03;;;0.88;;
76171;SDS011;64929;51.178;4.138;2023-12-29T14:01:06;2.25;;;1.00;;
76171;SDS011;64929;51.178;4.138;2023-12-29T14:03:41;3.28;;;1.00;;
76171;SDS011;64929;51.178;4.138;2023-12-29T14:06:12;2.28;;;0.93;;
76171;SDS011;64929;51.178;4.138;2023-12-29T14:08:46;1.70;;;0.85;;
76171;SDS011;64929;51.178;4.138;2023-12-29T14:11:12;2.78;;;0.60;;
76171;SDS011;64929;51.178;4.138;2023-12-29T14:13:41;2.35;;;0.70;;
76171;SDS011;64929;51.178;4.138;2023-12-29T14:16:07;2.42;;;1.05;;
76171;SDS011;64929;51.178;4.138;2023-12-29T14:20:59;2.00;;;1.00;;
76171;SDS011;64929;51.178;4.138;2023-12-29T14:23:25;2.60;;;0.90;;
76171;SDS011;64929;51.178;4.138;2023-12-29T14:25:51;4.38;;;0.77;;
76171;SDS011;64929;51.178;4.138;2023-12-29T14:28:17;1.27;;;0.73;;
76171;SDS011;64929;51.178;4.138;2023-12-29T14:30:45;3.33;;;0.73;;
76171;SDS011;64929;51.178;4.138;2023-12-29T14:33:11;1.42;;;0.63;;
76171;SDS011;64929;51.178;4.138;2023-12-29T14:35:37;2.10;;;0.90;;
76171;SDS011;64929;51.178;4.138;2023-12-29T14:38:03;0.95;;;0.70;;
76171;SDS011;64929;51.178;4.138;2023-12-29T14:40:29;1.90;;;0.88;;
76171;SDS011;64929;51.178;4.138;2023-12-29T14:42:55;1.60;;;0.70;;
76171;SDS011;64929;51.178;4.138;2023-12-29T14:45:21;2.40;;;0.82;;
76171;SDS011;64929;51.178;4.138;2023-12-29T14:47:46;3.30;;;0.70;;
76171;SDS011;64929;51.178;4.138;2023-12-29T14:50:14;5.18;;;1.00;;
76171;SDS011;64929;51.178;4.138;2023-12-29T14:52:40;2.97;;;0.60;;
76171;SDS011;64929;51.178;4.138;2023-12-29T14:55:06;3.80;;;0.90;;
76171;SDS011;64929;51.178;4.138;2023-12-29T14:57:32;7.00;;;0.90;;
76171;SDS011;64929;51.178;4.138;2023-12-29T14:59:58;1.67;;;0.68;;
76171;SDS011;64929;51.178;4.138;2023-12-29T15:02:24;12.02;;;8.52;;
76171;SDS011;64929;51.178;4.138;2023-12-29T15:04:49;20.55;;;13.93;;
76171;SDS011;64929;51.178;4.138;2023-12-29T15:07:18;20.05;;;15.88;;
76171;SDS011;64929;51.178;4.138;2023-12-29T15:09:44;19.90;;;15.18;;
76171;SDS011;64929;51.178;4.138;2023-12-29T15:12:09;14.05;;;8.88;;